Time;durP1;ratioP1;P1;durP2;ratioP2;P2;SDS_P1;SDS_P2;PMS_P1;PMS_P2;Temp;Humidity;BMP_temperature;BMP_pressure;BME280_temperature;BME280_humidity;BME280_pressure;Samples;Min_cycle;Max_cycle;Signal;HPM_P1;HPM_P2
2022/09/17 00:01:21;;;;;;;1.70;0.80;;;;;;;;;;5028616;28;20032;-57
2022/09/17 00:03:55;;;;;;;1.90;1.08;;;;;;;;;;5029422;28;20482;-57
2022/09/17 00:06:22;;;;;;;1.30;0.90;;;;;;;;;;5027503;28;20033;-57
2022/09/17 00:08:48;;;;;;;1.85;1.00;;;;;;;;;;5027559;28;20025;-57
2022/09/17 00:11:19;;;;;;;3.10;1.13;;;;;;;;;;5028603;28;20028;-57
2022/09/17 00:13:45;;;;;;;3.17;1.02;;;;;;;;;;5028022;28;20469;-57
2022/09/17 00:16:11;;;;;;;5.47;1.20;;;;;;;;;;5025694;28;20104;-57
2022/09/17 00:18:40;;;;;;;0.80;0.68;;;;;;;;;;5028509;28;20475;-57
2022/09/17 00:21:06;;;;;;;6.38;1.00;;;;;;;;;;5027934;28;20029;-57
2022/09/17 00:23:32;;;;;;;3.17;1.10;;;;;;;;;;5029450;28;20484;-57
2022/09/17 00:25:58;;;;;;;1.15;0.80;;;;;;;;;;5028008;28;20091;-57
2022/09/17 00:28:24;;;;;;;5.18;1.30;;;;;;;;;;5029214;28;20025;-58
2022/09/17 00:30:49;;;;;;;1.65;0.80;;;;;;;;;;5027667;28;20082;-57
2022/09/17 00:33:16;;;;;;;1.10;1.00;;;;;;;;;;5027413;28;20032;-57
2022/09/17 00:35:42;;;;;;;1.17;0.80;;;;;;;;;;5030683;28;20029;-58
2022/09/17 00:38:08;;;;;;;1.83;1.00;;;;;;;;;;5028600;28;20032;-57
2022/09/17 00:40:34;;;;;;;1.00;0.82;;;;;;;;;;5028263;28;20124;-57
2022/09/17 00:43:00;;;;;;;2.03;1.10;;;;;;;;;;5027865;28;20120;-57
2022/09/17 00:45:26;;;;;;;0.90;0.90;;;;;;;;;;5027551;28;20523;-57
2022/09/17 00:48:04;;;;;;;1.13;0.80;;;;;;;;;;5028337;28;20033;-57
2022/09/17 00:50:40;;;;;;;1.65;0.90;;;;;;;;;;5028233;28;20086;-57
2022/09/17 00:53:12;;;;;;;2.42;1.00;;;;;;;;;;5027759;28;20037;-57
2022/09/17 00:56:03;;;;;;;3.33;1.10;;;;;;;;;;5027098;28;20025;-57
2022/09/17 00:58:32;;;;;;;1.15;0.93;;;;;;;;;;5021710;28;20120;-56
2022/09/17 01:00:58;;;;;;;2.47;1.13;;;;;;;;;;5028387;28;20131;-57
2022/09/17 01:03:24;;;;;;;1.98;1.17;;;;;;;;;;5029766;28;20037;-57
2022/09/17 01:06:09;;;;;;;2.28;1.10;;;;;;;;;;5027486;28;20552;-57
2022/09/17 01:08:47;;;;;;;1.20;1.10;;;;;;;;;;5027903;28;20025;-57
2022/09/17 01:11:50;;;;;;;1.50;1.20;;;;;;;;;;5025641;28;20075;-57
2022/09/17 01:14:33;;;;;;;1.20;1.02;;;;;;;;;;5028038;28;20140;-57
2022/09/17 01:17:22;;;;;;;2.05;1.15;;;;;;;;;;5024944;28;20479;-57
2022/09/17 01:19:57;;;;;;;1.70;1.38;;;;;;;;;;5027619;28;20029;-57
2022/09/17 01:22:22;;;;;;;1.55;1.23;;;;;;;;;;5027279;28;20033;-57
2022/09/17 01:25:03;;;;;;;2.90;1.30;;;;;;;;;;5028177;28;20029;-57
2022/09/17 01:27:46;;;;;;;3.45;1.50;;;;;;;;;;5027358;28;20065;-58
2022/09/17 01:30:21;;;;;;;1.38;1.10;;;;;;;;;;5028607;28;20037;-57
2022/09/17 01:33:10;;;;;;;1.40;1.08;;;;;;;;;;5027266;28;20036;-57
2022/09/17 01:35:47;;;;;;;1.33;1.20;;;;;;;;;;5029459;28;20033;-57
2022/09/17 01:38:16;;;;;;;2.00;1.40;;;;;;;;;;5027653;28;20472;-57
2022/09/17 01:40:48;;;;;;;4.63;1.10;;;;;;;;;;5027061;28;20033;-57
2022/09/17 01:43:26;;;;;;;1.45;1.30;;;;;;;;;;5024098;28;20395;-57
2022/09/17 01:45:55;;;;;;;1.65;1.20;;;;;;;;;;5026788;28;20103;-57
2022/09/17 01:48:29;;;;;;;2.67;1.35;;;;;;;;;;5030340;28;20029;-57
2022/09/17 01:51:09;;;;;;;1.35;1.25;;;;;;;;;;5032863;28;20041;-57
2022/09/17 01:53:52;;;;;;;2.35;1.25;;;;;;;;;;5031649;28;20051;-57
2022/09/17 01:56:25;;;;;;;3.45;1.45;;;;;;;;;;5028652;28;20052;-57
2022/09/17 01:58:57;;;;;;;2.28;1.60;;;;;;;;;;5031597;28;20403;-57
2022/09/17 02:01:24;;;;;;;2.35;1.65;;;;;;;;;;5030678;28;20040;-57
2022/09/17 02:04:08;;;;;;;1.95;1.50;;;;;;;;;;5029442;28;20399;-57
2022/09/17 02:06:38;;;;;;;2.00;1.50;;;;;;;;;;5026697;28;20045;-57
2022/09/17 02:09:14;;;;;;;3.47;1.70;;;;;;;;;;5034978;28;20466;-57
2022/09/17 02:11:45;;;;;;;3.40;1.65;;;;;;;;;;5030429;28;20026;-57
2022/09/17 02:14:20;;;;;;;6.65;1.50;;;;;;;;;;5031247;28;20033;-57
2022/09/17 02:16:50;;;;;;;2.72;1.55;;;;;;;;;;5029978;28;20101;-69
2022/09/17 02:19:30;;;;;;;4.68;1.77;;;;;;;;;;5031442;28;20032;-57
2022/09/17 02:22:15;;;;;;;2.08;1.60;;;;;;;;;;5029971;28;20025;-58
2022/09/17 02:24:40;;;;;;;3.35;1.80;;;;;;;;;;5031945;28;20022;-57
2022/09/17 02:27:14;;;;;;;3.33;1.90;;;;;;;;;;5030591;28;20103;-57
2022/09/17 02:29:43;;;;;;;2.47;1.58;;;;;;;;;;5030412;28;20036;-57
2022/09/17 02:32:11;;;;;;;3.53;1.97;;;;;;;;;;5029974;28;20117;-57
2022/09/17 02:34:36;;;;;;;2.35;1.80;;;;;;;;;;5030646;28;20306;-56
2022/09/17 02:37:03;;;;;;;3.08;1.80;;;;;;;;;;5028779;28;20029;-57
2022/09/17 02:39:29;;;;;;;1.75;1.45;;;;;;;;;;5031783;28;20025;-57
2022/09/17 02:42:22;;;;;;;2.00;1.60;;;;;;;;;;5028678;28;20124;-57
2022/09/17 02:44:49;;;;;;;3.47;1.67;;;;;;;;;;5030343;28;20036;-57
2022/09/17 02:47:37;;;;;;;3.47;1.88;;;;;;;;;;5030733;28;20033;-56
2022/09/17 02:50:36;;;;;;;3.33;2.00;;;;;;;;;;4998735;28;20037;-58
2022/09/17 02:53:12;;;;;;;1.88;1.60;;;;;;;;;;5028665;28;20391;-57
2022/09/17 02:55:42;;;;;;;1.60;1.50;;;;;;;;;;5030090;28;20450;-57
2022/09/17 02:58:21;;;;;;;3.25;2.10;;;;;;;;;;5031184;28;20021;-56
2022/09/17 03:00:48;;;;;;;1.63;1.50;;;;;;;;;;5028077;28;20021;-57
2022/09/17 03:03:22;;;;;;;4.80;2.10;;;;;;;;;;5028678;28;20030;-57
2022/09/17 03:05:49;;;;;;;2.50;2.08;;;;;;;;;;5034182;28;20343;-57
2022/09/17 03:08:17;;;;;;;3.75;2.28;;;;;;;;;;5029986;28;20038;-57
2022/09/17 03:10:43;;;;;;;4.82;2.38;;;;;;;;;;5029897;28;20184;-57
2022/09/17 03:13:09;;;;;;;3.90;2.10;;;;;;;;;;5027602;28;20026;-57
2022/09/17 03:15:34;;;;;;;2.33;1.67;;;;;;;;;;5031996;28;20120;-57
2022/09/17 03:18:00;;;;;;;3.97;1.83;;;;;;;;;;5030298;28;20268;-57
2022/09/17 03:20:26;;;;;;;3.53;2.10;;;;;;;;;;5029639;28;20491;-57
2022/09/17 03:22:51;;;;;;;4.05;2.40;;;;;;;;;;5032349;28;20053;-57
2022/09/17 03:25:17;;;;;;;4.63;2.20;;;;;;;;;;5030176;28;20030;-57
2022/09/17 03:27:42;;;;;;;2.72;1.90;;;;;;;;;;5030154;28;20044;-57
2022/09/17 03:30:08;;;;;;;2.70;1.95;;;;;;;;;;5029452;28;20021;-57
2022/09/17 03:32:34;;;;;;;2.08;1.83;;;;;;;;;;5028363;28;20037;-58
2022/09/17 03:34:59;;;;;;;2.55;2.00;;;;;;;;;;5028101;28;20025;-57
2022/09/17 03:37:24;;;;;;;3.72;1.98;;;;;;;;;;5028970;28;20094;-57
2022/09/17 03:39:50;;;;;;;7.03;1.98;;;;;;;;;;5030096;28;20029;-57
2022/09/17 03:42:15;;;;;;;4.35;1.95;;;;;;;;;;5028416;28;20032;-57
2022/09/17 03:44:40;;;;;;;6.65;2.20;;;;;;;;;;5029363;28;20076;-57
2022/09/17 03:47:06;;;;;;;6.90;1.90;;;;;;;;;;5031535;28;20550;-57
2022/09/17 03:49:31;;;;;;;4.95;2.03;;;;;;;;;;5029097;28;20379;-57
2022/09/17 03:51:57;;;;;;;2.53;1.80;;;;;;;;;;5027481;28;20029;-57
2022/09/17 03:54:22;;;;;;;4.55;2.03;;;;;;;;;;5027650;28;20035;-57
2022/09/17 03:56:47;;;;;;;5.22;2.40;;;;;;;;;;5027540;28;20033;-57
2022/09/17 03:59:13;;;;;;;3.95;1.95;;;;;;;;;;5032833;28;20433;-57
2022/09/17 04:01:38;;;;;;;5.40;2.20;;;;;;;;;;5027892;28;20099;-57
2022/09/17 04:04:04;;;;;;;2.88;2.00;;;;;;;;;;5029250;28;20518;-57
2022/09/17 04:06:29;;;;;;;16.02;3.42;;;;;;;;;;5030029;28;20500;-57
2022/09/17 04:08:55;;;;;;;3.60;2.22;;;;;;;;;;5028747;28;20025;-57
2022/09/17 04:11:21;;;;;;;2.42;1.90;;;;;;;;;;5027403;28;20392;-57
2022/09/17 04:13:47;;;;;;;4.75;2.25;;;;;;;;;;5028249;28;20087;-57
2022/09/17 04:16:13;;;;;;;2.40;2.05;;;;;;;;;;5028451;28;20025;-57
2022/09/17 04:18:38;;;;;;;4.90;2.30;;;;;;;;;;5028640;28;20552;-57
2022/09/17 04:21:04;;;;;;;5.03;2.22;;;;;;;;;;5028454;28;20037;-57
2022/09/17 04:23:29;;;;;;;4.38;2.03;;;;;;;;;;5027404;28;20025;-57
2022/09/17 04:25:54;;;;;;;3.53;1.80;;;;;;;;;;5027842;28;20060;-57
2022/09/17 04:28:20;;;;;;;4.85;2.17;;;;;;;;;;5028002;28;20025;-57
2022/09/17 04:30:47;;;;;;;6.07;2.00;;;;;;;;;;5027911;28;20033;-57
2022/09/17 04:33:12;;;;;;;5.70;2.00;;;;;;;;;;5028031;28;20029;-57
2022/09/17 04:35:37;;;;;;;4.50;1.90;;;;;;;;;;5027813;28;20033;-57
2022/09/17 04:38:03;;;;;;;2.33;1.70;;;;;;;;;;5027730;28;20033;-57
2022/09/17 04:40:28;;;;;;;2.55;1.95;;;;;;;;;;5029555;28;20088;-57
2022/09/17 04:42:55;;;;;;;2.33;1.83;;;;;;;;;;5028081;28;20061;-57
2022/09/17 04:45:21;;;;;;;3.83;2.40;;;;;;;;;;5027520;28;20044;-57
2022/09/17 04:47:47;;;;;;;6.75;2.95;;;;;;;;;;5026686;28;20033;-57
2022/09/17 04:50:13;;;;;;;2.78;2.55;;;;;;;;;;5028105;28;20018;-57
2022/09/17 04:52:42;;;;;;;4.22;2.53;;;;;;;;;;5027578;28;20044;-57
2022/09/17 04:55:08;;;;;;;;;;;;;;;;;;5026911;28;20048;-57
2022/09/17 04:57:33;;;;;;;3.67;2.65;;;;;;;;;;5028721;28;19955;-57
2022/09/17 04:59:59;;;;;;;7.63;3.03;;;;;;;;;;5027278;28;20272;-57
2022/09/17 05:02:24;;;;;;;3.83;2.60;;;;;;;;;;5027893;28;20497;-56
2022/09/17 05:04:49;;;;;;;4.32;2.50;;;;;;;;;;5027573;28;20029;-59
2022/09/17 05:07:15;;;;;;;7.18;2.53;;;;;;;;;;5027375;28;20435;-60
2022/09/17 05:09:40;;;;;;;3.72;2.70;;;;;;;;;;5028200;28;20036;-60
2022/09/17 05:12:06;;;;;;;3.22;2.60;;;;;;;;;;5027397;28;20107;-60
2022/09/17 05:14:31;;;;;;;8.65;2.60;;;;;;;;;;5027914;28;20327;-60
2022/09/17 05:16:57;;;;;;;5.65;2.58;;;;;;;;;;5026378;28;20497;-60
2022/09/17 05:19:22;;;;;;;4.07;2.60;;;;;;;;;;5027483;28;20022;-60
2022/09/17 05:21:47;;;;;;;5.90;2.45;;;;;;;;;;5024029;28;20056;-61
2022/09/17 05:24:13;;;;;;;6.60;2.42;;;;;;;;;;5031098;28;20040;-61
2022/09/17 05:26:38;;;;;;;4.57;2.38;;;;;;;;;;5030485;28;20041;-61
2022/09/17 05:29:04;;;;;;;3.83;2.45;;;;;;;;;;5027593;28;20099;-61
2022/09/17 05:31:29;;;;;;;5.63;2.42;;;;;;;;;;5031480;28;20112;-61
2022/09/17 05:33:56;;;;;;;5.57;3.60;;;;;;;;;;5031326;28;20120;-61
2022/09/17 05:36:22;;;;;;;7.40;2.92;;;;;;;;;;5031037;28;20030;-60
2022/09/17 05:38:47;;;;;;;2.83;2.47;;;;;;;;;;5033527;28;20143;-61
2022/09/17 05:41:13;;;;;;;4.93;2.95;;;;;;;;;;5031482;28;20049;-60
2022/09/17 05:43:38;;;;;;;4.47;2.42;;;;;;;;;;5029736;28;20661;-60
2022/09/17 05:46:05;;;;;;;8.23;2.67;;;;;;;;;;5030984;28;20380;-61
2022/09/17 05:48:31;;;;;;;4.93;3.33;;;;;;;;;;5030691;28;20213;-61
2022/09/17 05:50:56;;;;;;;8.15;4.00;;;;;;;;;;5030390;28;20037;-61
2022/09/17 05:53:21;;;;;;;6.78;3.58;;;;;;;;;;5030251;28;20025;-61
2022/09/17 05:55:47;;;;;;;6.55;2.40;;;;;;;;;;5029408;28;20340;-61
2022/09/17 05:58:17;;;;;;;5.10;2.00;;;;;;;;;;5031106;28;20043;-60
2022/09/17 06:00:46;;;;;;;4.38;2.55;;;;;;;;;;5031222;28;20044;-62
2022/09/17 06:03:14;;;;;;;4.30;2.63;;;;;;;;;;5030533;28;20033;-61
2022/09/17 06:05:40;;;;;;;5.90;2.80;;;;;;;;;;5029956;28;20099;-61
2022/09/17 06:08:06;;;;;;;8.70;3.03;;;;;;;;;;5030495;28;20029;-61
2022/09/17 06:10:31;;;;;;;7.88;3.53;;;;;;;;;;5030744;28;20021;-61
2022/09/17 06:12:58;;;;;;;8.63;4.28;;;;;;;;;;5034577;28;20040;-61
2022/09/17 06:15:24;;;;;;;8.10;4.18;;;;;;;;;;5029898;28;20140;-61
2022/09/17 06:17:50;;;;;;;8.05;3.97;;;;;;;;;;5028316;28;20064;-61
2022/09/17 06:20:15;;;;;;;6.55;3.30;;;;;;;;;;5029684;28;20138;-61
2022/09/17 06:22:42;;;;;;;8.85;3.45;;;;;;;;;;5030976;28;20039;-61
2022/09/17 06:25:07;;;;;;;6.72;3.10;;;;;;;;;;5030985;28;20155;-61
2022/09/17 06:27:34;;;;;;;6.22;2.53;;;;;;;;;;5028133;28;20116;-61
2022/09/17 06:29:59;;;;;;;4.05;2.33;;;;;;;;;;5031476;28;20025;-61
2022/09/17 06:32:25;;;;;;;6.03;3.20;;;;;;;;;;5030335;28;20033;-61
2022/09/17 06:34:51;;;;;;;5.53;3.28;;;;;;;;;;5030075;28;20036;-61
2022/09/17 06:37:17;;;;;;;7.72;3.47;;;;;;;;;;5029893;28;20029;-61
2022/09/17 06:39:42;;;;;;;5.22;2.90;;;;;;;;;;5030085;28;20214;-61
2022/09/17 06:42:08;;;;;;;7.78;2.80;;;;;;;;;;5029535;28;20031;-61
2022/09/17 06:44:33;;;;;;;4.53;3.25;;;;;;;;;;5032185;28;20025;-61
2022/09/17 06:46:59;;;;;;;9.55;2.95;;;;;;;;;;5029597;28;20379;-61
2022/09/17 06:49:24;;;;;;;7.75;3.10;;;;;;;;;;5029591;28;20029;-61
2022/09/17 06:51:49;;;;;;;4.93;2.90;;;;;;;;;;5027816;28;20116;-61
2022/09/17 06:54:15;;;;;;;5.90;3.10;;;;;;;;;;5029438;28;20033;-61
2022/09/17 06:56:40;;;;;;;3.35;2.60;;;;;;;;;;5028643;28;20052;-61
2022/09/17 06:59:05;;;;;;;6.00;2.50;;;;;;;;;;5030951;28;20052;-61
2022/09/17 07:01:31;;;;;;;8.30;2.85;;;;;;;;;;5029153;28;20487;-61
2022/09/17 07:03:57;;;;;;;5.22;2.60;;;;;;;;;;5030741;28;20087;-61
2022/09/17 07:06:22;;;;;;;4.80;2.40;;;;;;;;;;5029189;28;20026;-61
2022/09/17 07:08:48;;;;;;;10.77;3.08;;;;;;;;;;5028686;28;20029;-61
2022/09/17 07:11:14;;;;;;;5.97;2.70;;;;;;;;;;5027675;28;20029;-61
2022/09/17 07:13:40;;;;;;;6.85;2.80;;;;;;;;;;5027355;28;20029;-61
2022/09/17 07:16:06;;;;;;;5.82;3.42;;;;;;;;;;5028587;28;20017;-61
2022/09/17 07:18:32;;;;;;;7.50;2.70;;;;;;;;;;5028084;28;20033;-61
2022/09/17 07:21:03;;;;;;;5.40;2.78;;;;;;;;;;5027171;28;20033;-61
2022/09/17 07:23:34;;;;;;;14.77;6.40;;;;;;;;;;5026707;28;20545;-61
2022/09/17 07:26:02;;;;;;;9.95;2.67;;;;;;;;;;5030031;28;20025;-61
2022/09/17 07:28:28;;;;;;;4.43;2.78;;;;;;;;;;5027565;28;20031;-61
2022/09/17 07:30:54;;;;;;;9.48;3.05;;;;;;;;;;5027748;28;20505;-61
2022/09/17 07:33:24;;;;;;;4.75;2.78;;;;;;;;;;5029000;28;20152;-62
2022/09/17 07:36:01;;;;;;;10.27;3.60;;;;;;;;;;5028619;28;20029;-62
2022/09/17 07:38:28;;;;;;;4.15;2.55;;;;;;;;;;5030127;28;20486;-61
2022/09/17 07:40:57;;;;;;;6.10;2.60;;;;;;;;;;5028526;28;20033;-62
2022/09/17 07:43:23;;;;;;;7.43;2.57;;;;;;;;;;5028664;28;20406;-62
2022/09/17 07:45:48;;;;;;;5.00;2.78;;;;;;;;;;5028064;28;20025;-62
2022/09/17 07:48:14;;;;;;;5.65;2.38;;;;;;;;;;5028829;28;20044;-62
2022/09/17 07:50:39;;;;;;;7.15;2.72;;;;;;;;;;5028973;28;20079;-62
2022/09/17 07:53:05;;;;;;;5.97;2.95;;;;;;;;;;5031678;28;20024;-61
2022/09/17 07:55:30;;;;;;;4.25;2.67;;;;;;;;;;5028576;28;20017;-62
2022/09/17 07:57:55;;;;;;;6.35;3.67;;;;;;;;;;5029157;28;20025;-62
2022/09/17 08:00:21;;;;;;;4.95;2.83;;;;;;;;;;5028922;28;20483;-65
2022/09/17 08:02:55;;;;;;;4.50;2.70;;;;;;;;;;5028727;28;20029;-64
2022/09/17 08:05:21;;;;;;;5.35;3.10;;;;;;;;;;5028894;28;20034;-65
2022/09/17 08:07:53;;;;;;;6.88;3.47;;;;;;;;;;5028167;28;20026;-64
2022/09/17 08:10:21;;;;;;;4.90;3.45;;;;;;;;;;5030493;28;20268;-65
2022/09/17 08:12:48;;;;;;;7.57;3.22;;;;;;;;;;5032483;28;20065;-64
2022/09/17 08:15:15;;;;;;;6.63;3.15;;;;;;;;;;5028608;28;20029;-64
2022/09/17 08:17:44;;;;;;;8.38;3.20;;;;;;;;;;5027724;28;20025;-63
2022/09/17 08:20:10;;;;;;;9.15;3.20;;;;;;;;;;5024421;28;20030;-63
2022/09/17 08:22:36;;;;;;;6.65;3.20;;;;;;;;;;5026100;28;20407;-62
2022/09/17 08:25:03;;;;;;;5.78;2.67;;;;;;;;;;5026528;28;20026;-63
2022/09/17 08:27:30;;;;;;;4.07;2.38;;;;;;;;;;5026861;28;20029;-63
2022/09/17 08:29:55;;;;;;;3.63;2.00;;;;;;;;;;5029703;28;20037;-64
2022/09/17 08:32:20;;;;;;;3.45;2.15;;;;;;;;;;5027063;28;20399;-64
2022/09/17 08:34:46;;;;;;;3.13;2.20;;;;;;;;;;5026759;28;20025;-64
2022/09/17 08:37:11;;;;;;;5.60;2.80;;;;;;;;;;5025160;28;20033;-64
2022/09/17 08:39:37;;;;;;;4.40;2.58;;;;;;;;;;5026628;28;20179;-63
2022/09/17 08:42:14;;;;;;;4.63;2.85;;;;;;;;;;5026147;28;20042;-64
2022/09/17 08:44:45;;;;;;;7.22;2.88;;;;;;;;;;5029188;28;20021;-64
2022/09/17 08:47:52;;;;;;;5.75;3.40;;;;;;;;;;5026511;28;20025;-63
2022/09/17 08:50:33;;;;;;;5.20;3.00;;;;;;;;;;5026040;28;20115;-63
2022/09/17 08:52:58;;;;;;;3.95;2.95;;;;;;;;;;5026002;28;20025;-63
2022/09/17 08:55:38;;;;;;;2.67;2.22;;;;;;;;;;5029928;28;20509;-64
2022/09/17 08:58:22;;;;;;;3.95;2.40;;;;;;;;;;5030986;28;20502;-63
2022/09/17 09:00:54;;;;;;;5.63;2.50;;;;;;;;;;5031928;28;20029;-62
2022/09/17 09:03:33;;;;;;;3.55;2.72;;;;;;;;;;5030796;28;20048;-65
2022/09/17 09:06:00;;;;;;;5.80;2.60;;;;;;;;;;5030640;28;20112;-64
2022/09/17 09:08:42;;;;;;;3.20;2.42;;;;;;;;;;5032919;28;20055;-61
2022/09/17 09:11:20;;;;;;;5.97;2.47;;;;;;;;;;5028951;28;20041;-61
2022/09/17 09:13:51;;;;;;;4.75;2.58;;;;;;;;;;5030436;28;20030;-64
2022/09/17 09:16:22;;;;;;;5.32;2.33;;;;;;;;;;5038143;28;20017;-64
2022/09/17 09:18:53;;;;;;;6.45;2.60;;;;;;;;;;5031393;28;20064;-63
2022/09/17 09:21:27;;;;;;;5.18;3.05;;;;;;;;;;5030861;28;20032;-62
2022/09/17 09:23:57;;;;;;;6.18;3.50;;;;;;;;;;5031282;28;20025;-62
2022/09/17 09:26:35;;;;;;;8.75;4.47;;;;;;;;;;5031134;28;20033;-62
2022/09/17 09:29:34;;;;;;;5.22;3.00;;;;;;;;;;5030263;28;20083;-63
2022/09/17 09:32:23;;;;;;;8.27;2.78;;;;;;;;;;5028267;28;20025;-63
2022/09/17 09:34:49;;;;;;;6.43;4.13;;;;;;;;;;5030249;28;20108;-62
2022/09/17 09:37:25;;;;;;;8.13;3.70;;;;;;;;;;5033002;28;20426;-62
2022/09/17 09:39:52;;;;;;;10.57;4.28;;;;;;;;;;5033483;28;20519;-63
2022/09/17 09:42:34;;;;;;;8.27;3.22;;;;;;;;;;5032380;28;20061;-62
2022/09/17 09:45:05;;;;;;;4.20;2.70;;;;;;;;;;5037401;28;20029;-63
2022/09/17 09:47:41;;;;;;;6.53;3.15;;;;;;;;;;5036678;28;20406;-63
2022/09/17 09:50:27;;;;;;;3.90;2.72;;;;;;;;;;5035406;28;20057;-61
2022/09/17 09:53:16;;;;;;;7.68;3.38;;;;;;;;;;5029702;28;20040;-62
2022/09/17 09:56:01;;;;;;;6.05;2.55;;;;;;;;;;5028984;28;20483;-62
2022/09/17 09:58:35;;;;;;;5.85;2.72;;;;;;;;;;5034245;28;20064;-60
2022/09/17 10:01:01;;;;;;;6.82;2.78;;;;;;;;;;5034001;28;20021;-61
2022/09/17 10:03:31;;;;;;;5.13;2.30;;;;;;;;;;5033972;28;20045;-61
2022/09/17 10:06:03;;;;;;;;;;;;;;;;;;5032445;28;21273;-60
2022/09/17 10:08:35;;;;;;;6.80;2.45;;;;;;;;;;5031950;28;19913;-61
2022/09/17 10:11:05;;;;;;;8.93;2.92;;;;;;;;;;5031250;28;20022;-61
2022/09/17 10:13:34;;;;;;;9.85;3.40;;;;;;;;;;5030881;28;20462;-61
2022/09/17 10:16:16;;;;;;;10.57;3.30;;;;;;;;;;5030598;28;20036;-61
2022/09/17 10:18:41;;;;;;;17.35;3.20;;;;;;;;;;5030790;28;20040;-60
2022/09/17 10:21:38;;;;;;;7.60;3.40;;;;;;;;;;5031567;28;20025;-60
2022/09/17 10:24:11;;;;;;;6.75;3.03;;;;;;;;;;5031276;28;20022;-60
2022/09/17 10:26:36;;;;;;;5.47;2.58;;;;;;;;;;5033085;28;20563;-60
2022/09/17 10:29:05;;;;;;;8.40;2.80;;;;;;;;;;5034573;28;20120;-60
2022/09/17 10:32:05;;;;;;;9.32;3.13;;;;;;;;;;5029806;28;20029;-61
2022/09/17 10:34:32;;;;;;;10.00;2.70;;;;;;;;;;4988335;28;20045;-61
2022/09/17 10:36:57;;;;;;;9.82;3.15;;;;;;;;;;5031002;28;20060;-61
2022/09/17 10:39:33;;;;;;;14.85;4.13;;;;;;;;;;5028387;28;20044;-61
2022/09/17 10:42:11;;;;;;;12.30;3.47;;;;;;;;;;5038721;28;20029;-61
2022/09/17 10:44:48;;;;;;;10.23;3.35;;;;;;;;;;5033635;28;20483;-61
2022/09/17 10:47:20;;;;;;;8.02;3.03;;;;;;;;;;5036296;28;20029;-64
2022/09/17 10:49:48;;;;;;;8.60;3.03;;;;;;;;;;5030060;28;20033;-64
2022/09/17 10:52:28;;;;;;;9.23;4.20;;;;;;;;;;5035673;28;20108;-63
2022/09/17 10:55:12;;;;;;;10.75;3.60;;;;;;;;;;5030080;28;20056;-63
2022/09/17 10:58:02;;;;;;;10.63;4.13;;;;;;;;;;5031475;28;20060;-62
2022/09/17 11:00:48;;;;;;;12.15;3.55;;;;;;;;;;5033477;28;20048;-62
2022/09/17 11:03:35;;;;;;;11.98;3.20;;;;;;;;;;5028487;28;20099;-62
2022/09/17 11:06:24;;;;;;;9.02;3.10;;;;;;;;;;5028710;28;20033;-62
2022/09/17 11:09:17;;;;;;;13.18;4.25;;;;;;;;;;5031076;28;20028;-62
2022/09/17 11:11:54;;;;;;;12.02;3.70;;;;;;;;;;5028509;28;20029;-62
2022/09/17 11:14:37;;;;;;;7.18;3.17;;;;;;;;;;5028500;28;20423;-61
2022/09/17 11:17:24;;;;;;;6.53;2.50;;;;;;;;;;5029795;28;20035;-61
2022/09/17 11:19:57;;;;;;;6.20;2.60;;;;;;;;;;5028654;28;20448;-62
2022/09/17 11:22:26;;;;;;;6.18;2.75;;;;;;;;;;5028991;28;20017;-61
2022/09/17 11:25:13;;;;;;;10.13;3.00;;;;;;;;;;5031844;28;20436;-61
2022/09/17 11:27:59;;;;;;;6.18;2.40;;;;;;;;;;5031218;28;20029;-61
2022/09/17 11:30:42;;;;;;;5.00;2.17;;;;;;;;;;5029433;28;20124;-61
2022/09/17 11:33:07;;;;;;;5.65;2.15;;;;;;;;;;5038010;28;20033;-61
2022/09/17 11:35:59;;;;;;;7.47;2.22;;;;;;;;;;5027944;28;20033;-60
2022/09/17 11:38:33;;;;;;;9.13;4.32;;;;;;;;;;5032724;28;20070;-61
2022/09/17 11:41:01;;;;;;;7.60;3.00;;;;;;;;;;5028711;28;20036;-61
2022/09/17 11:43:41;;;;;;;6.20;2.15;;;;;;;;;;5028664;28;20029;-61
2022/09/17 11:46:18;;;;;;;7.38;2.20;;;;;;;;;;5027046;28;20036;-61
2022/09/17 11:48:46;;;;;;;8.85;2.40;;;;;;;;;;5029244;28;20079;-59
2022/09/17 11:51:29;;;;;;;8.55;2.60;;;;;;;;;;5032522;28;20020;-61
2022/09/17 11:54:02;;;;;;;5.57;2.20;;;;;;;;;;5032251;28;20132;-57
2022/09/17 11:56:46;;;;;;;7.35;2.35;;;;;;;;;;5031261;28;20031;-63
2022/09/17 11:59:30;;;;;;;9.30;3.50;;;;;;;;;;5036904;28;20055;-61
2022/09/17 12:02:01;;;;;;;8.20;2.22;;;;;;;;;;5027840;28;20527;-61
2022/09/17 12:04:45;;;;;;;3.42;1.80;;;;;;;;;;5027554;28;20118;-61
2022/09/17 12:07:19;;;;;;;6.85;1.77;;;;;;;;;;5027552;28;20490;-61
2022/09/17 12:09:52;;;;;;;4.88;1.60;;;;;;;;;;5030356;28;20095;-61
2022/09/17 12:12:22;;;;;;;5.70;1.85;;;;;;;;;;5028756;28;20079;-61
2022/09/17 12:14:53;;;;;;;;;;;;;;;;;;5027441;28;20037;-61
2022/09/17 12:17:23;;;;;;;3.92;1.90;;;;;;;;;;5033785;28;21678;-61
2022/09/17 12:19:55;;;;;;;6.50;1.83;;;;;;;;;;5028557;28;20029;-61
2022/09/17 12:22:22;;;;;;;4.43;2.00;;;;;;;;;;5032277;28;20434;-61
2022/09/17 12:24:52;;;;;;;2.92;1.38;;;;;;;;;;5029307;28;20017;-60
2022/09/17 12:27:26;;;;;;;5.15;1.70;;;;;;;;;;5028375;28;20052;-61
2022/09/17 12:30:13;;;;;;;3.88;1.73;;;;;;;;;;5028339;28;20025;-61
2022/09/17 12:32:56;;;;;;;3.90;1.50;;;;;;;;;;5030137;28;20029;-61
2022/09/17 12:35:49;;;;;;;7.45;2.08;;;;;;;;;;5030131;28;20044;-61
2022/09/17 12:38:36;;;;;;;3.28;1.42;;;;;;;;;;5029392;28;20041;-61
2022/09/17 12:41:07;;;;;;;5.68;1.40;;;;;;;;;;5024649;28;20395;-61
2022/09/17 12:43:41;;;;;;;3.03;1.60;;;;;;;;;;5031489;28;20499;-61
2022/09/17 12:46:25;;;;;;;5.85;1.98;;;;;;;;;;5028405;28;20047;-61
2022/09/17 12:49:12;;;;;;;3.05;1.40;;;;;;;;;;5027970;28;20059;-61
2022/09/17 12:51:46;;;;;;;3.75;1.45;;;;;;;;;;5028411;28;20114;-61
2022/09/17 12:54:36;;;;;;;4.40;1.60;;;;;;;;;;5028851;28;20025;-61
2022/09/17 12:57:23;;;;;;;2.22;1.40;;;;;;;;;;5029198;28;20441;-61
2022/09/17 13:00:12;;;;;;;4.47;2.20;;;;;;;;;;5031116;28;20475;-61
2022/09/17 13:03:01;;;;;;;4.65;1.83;;;;;;;;;;5032180;28;20394;-61
2022/09/17 13:05:54;;;;;;;4.22;2.00;;;;;;;;;;5026679;28;20116;-60
2022/09/17 13:08:19;;;;;;;5.68;2.15;;;;;;;;;;5025114;28;20514;-61
2022/09/17 13:10:51;;;;;;;4.78;2.60;;;;;;;;;;5028576;28;20029;-61
2022/09/17 13:13:19;;;;;;;10.55;3.15;;;;;;;;;;5022418;28;20124;-56
2022/09/17 13:16:13;;;;;;;5.60;2.15;;;;;;;;;;5027944;28;20435;-56
2022/09/17 13:18:56;;;;;;;7.53;1.90;;;;;;;;;;5017195;28;20040;-56
2022/09/17 13:21:31;;;;;;;5.45;1.95;;;;;;;;;;5026682;28;20033;-56
2022/09/17 13:23:57;;;;;;;3.22;1.75;;;;;;;;;;5037956;28;20029;-56
2022/09/17 13:26:33;;;;;;;5.25;2.60;;;;;;;;;;5027231;28;20120;-60
2022/09/17 13:28:59;;;;;;;6.10;2.30;;;;;;;;;;5030426;28;20025;-61
2022/09/17 13:31:33;;;;;;;7.47;2.90;;;;;;;;;;5032672;28;20052;-62
2022/09/17 13:34:00;;;;;;;6.38;2.22;;;;;;;;;;5029344;28;20116;-64
2022/09/17 13:36:31;;;;;;;5.78;1.90;;;;;;;;;;5026588;28;20037;-63
2022/09/17 13:38:58;;;;;;;4.28;2.10;;;;;;;;;;5027100;28;20514;-62
2022/09/17 13:41:24;;;;;;;5.78;2.20;;;;;;;;;;5029168;28;20084;-63
2022/09/17 13:43:54;;;;;;;3.58;1.90;;;;;;;;;;5031064;28;20109;-63
2022/09/17 13:46:25;;;;;;;2.40;2.10;;;;;;;;;;5034125;28;20438;-63
2022/09/17 13:48:58;;;;;;;5.95;2.40;;;;;;;;;;5034829;28;20033;-62
2022/09/17 13:51:29;;;;;;;15.63;6.57;;;;;;;;;;5035283;28;20040;-63
2022/09/17 13:53:58;;;;;;;9.80;3.97;;;;;;;;;;5032214;28;20029;-62
2022/09/17 13:56:47;;;;;;;4.55;2.00;;;;;;;;;;5030441;28;20112;-62
2022/09/17 13:59:20;;;;;;;6.60;2.17;;;;;;;;;;5031809;28;20029;-62
2022/09/17 14:02:05;;;;;;;3.40;2.00;;;;;;;;;;5030912;28;20029;-63
2022/09/17 14:04:41;;;;;;;7.63;3.72;;;;;;;;;;5028122;28;20040;-63
2022/09/17 14:07:27;;;;;;;24.50;7.88;;;;;;;;;;5032920;28;20036;-62
2022/09/17 14:10:00;;;;;;;21.08;7.22;;;;;;;;;;5038691;28;20056;-63
2022/09/17 14:12:39;;;;;;;10.38;4.15;;;;;;;;;;5031757;28;20030;-62
2022/09/17 14:15:32;;;;;;;6.72;2.80;;;;;;;;;;5033742;28;20100;-62
2022/09/17 14:17:58;;;;;;;11.77;4.35;;;;;;;;;;5031845;28;20040;-62
2022/09/17 14:20:25;;;;;;;25.77;8.40;;;;;;;;;;5034789;28;20370;-62
2022/09/17 14:22:58;;;;;;;4.22;2.30;;;;;;;;;;5030370;28;20387;-62
2022/09/17 14:25:46;;;;;;;11.68;4.90;;;;;;;;;;5031930;28;20114;-61
2022/09/17 14:28:54;;;;;;;3.58;1.30;;;;;;;;;;5031480;28;20030;-61
2022/09/17 14:31:30;;;;;;;2.90;1.58;;;;;;;;;;4996206;28;20045;-60
2022/09/17 14:33:55;;;;;;;2.53;1.45;;;;;;;;;;5031397;28;20116;-61
2022/09/17 14:36:22;;;;;;;4.43;1.70;;;;;;;;;;5031334;28;20109;-60
2022/09/17 14:38:52;;;;;;;4.32;1.77;;;;;;;;;;5030479;28;20518;-61
2022/09/17 14:41:27;;;;;;;4.38;1.40;;;;;;;;;;5028982;28;20037;-61
2022/09/17 14:44:07;;;;;;;3.10;1.40;;;;;;;;;;5031152;28;20033;-60
2022/09/17 14:46:32;;;;;;;2.65;1.40;;;;;;;;;;5033992;28;20029;-61
2022/09/17 14:49:21;;;;;;;5.28;1.70;;;;;;;;;;5036383;28;20133;-59
2022/09/17 14:51:47;;;;;;;3.13;2.17;;;;;;;;;;5033537;28;20021;-58
2022/09/17 14:54:21;;;;;;;5.10;2.00;;;;;;;;;;5035889;28;20043;-61
2022/09/17 14:56:55;;;;;;;2.28;1.30;;;;;;;;;;5028987;28;20033;-61
2022/09/17 14:59:49;;;;;;;4.55;2.15;;;;;;;;;;5033057;28;20022;-62
2022/09/17 15:02:23;;;;;;;5.45;2.42;;;;;;;;;;5029909;28;20037;-61
2022/09/17 15:04:49;;;;;;;3.75;2.47;;;;;;;;;;5029217;28;20024;-60
2022/09/17 15:07:14;;;;;;;3.95;2.30;;;;;;;;;;5035359;28;20268;-60
2022/09/17 15:09:39;;;;;;;1.85;1.55;;;;;;;;;;5029951;28;20065;-60
2022/09/17 15:12:06;;;;;;;1.70;1.55;;;;;;;;;;5028230;28;20112;-60